createdAt,value
2022-12-05T00:02:08.241Z,5.35
2022-12-05T00:04:36.869Z,5.35
2022-12-05T00:07:05.348Z,5.34
2022-12-05T00:09:33.765Z,5.35
2022-12-05T00:12:02.093Z,5.38
2022-12-05T00:14:31.810Z,5.37
2022-12-05T00:17:00.240Z,5.37
2022-12-05T00:19:28.670Z,5.38
2022-12-05T00:21:57.698Z,5.37
2022-12-05T00:24:26.271Z,5.37
2022-12-05T00:26:54.621Z,5.37
2022-12-05T00:29:22.973Z,5.36
2022-12-05T00:31:52.787Z,5.33
2022-12-05T00:34:21.216Z,5.32
2022-12-05T00:36:49.671Z,5.34
2022-12-05T00:39:18.104Z,5.32
2022-12-05T00:41:46.690Z,5.32
2022-12-05T00:44:15.083Z,5.31
2022-12-05T00:46:43.650Z,5.31
2022-12-05T00:49:13.937Z,5.34
2022-12-05T00:51:44.385Z,5.32
2022-12-05T00:54:15.480Z,5.30
2022-12-05T00:56:45.104Z,5.30
2022-12-05T00:59:17.773Z,5.32
2022-12-05T01:01:48.034Z,5.33
2022-12-05T01:04:21.421Z,5.36
2022-12-05T01:06:50.828Z,5.38
2022-12-05T01:09:21.564Z,5.41
2022-12-05T01:11:51.309Z,5.41
2022-12-05T01:14:23.317Z,5.40
2022-12-05T01:16:54.579Z,5.39
2022-12-05T01:19:27.071Z,5.40
2022-12-05T01:21:56.605Z,5.36
2022-12-05T01:24:26.900Z,5.36
2022-12-05T01:26:55.645Z,5.36
2022-12-05T01:29:25.749Z,5.37
2022-12-05T01:31:54.678Z,5.39
2022-12-05T01:34:24.530Z,5.37
2022-12-05T01:36:52.975Z,5.37
2022-12-05T01:39:21.350Z,5.39
2022-12-05T01:41:51.707Z,5.38
2022-12-05T01:45:02.301Z,5.35
2022-12-05T01:47:33.799Z,5.36
2022-12-05T01:50:04.699Z,5.37
2022-12-05T01:52:34.863Z,5.37
2022-12-05T01:55:11.475Z,5.38
2022-12-05T01:57:40.485Z,5.38
2022-12-05T02:00:13.464Z,5.38
2022-12-05T02:02:43.153Z,5.35
2022-12-05T02:05:21.155Z,5.35
2022-12-05T02:07:49.888Z,5.36
2022-12-05T02:10:19.046Z,5.36
2022-12-05T02:12:48.211Z,5.38
2022-12-05T02:15:38.517Z,5.35
2022-12-05T02:18:21.938Z,5.38
2022-12-05T02:21:20.183Z,5.36
2022-12-05T02:24:29.204Z,5.34
2022-12-05T02:27:20.684Z,5.35
2022-12-05T02:30:08.007Z,5.35
2022-12-05T02:33:17.335Z,5.35
2022-12-05T02:35:55.405Z,5.38
2022-12-05T02:38:31.096Z,5.34
2022-12-05T02:41:13.279Z,5.35
2022-12-05T02:43:48.138Z,5.31
2022-12-05T02:46:22.308Z,5.31
2022-12-05T02:48:55.618Z,5.31
2022-12-05T02:51:27.756Z,5.31
2022-12-05T02:53:59.454Z,5.31
2022-12-05T02:56:29.189Z,5.29
2022-12-05T02:58:57.832Z,5.29
2022-12-05T03:01:32.527Z,5.28
2022-12-05T03:04:05.358Z,5.29
2022-12-05T03:06:40.061Z,5.28
2022-12-05T03:09:13.556Z,5.25
2022-12-05T03:11:48.358Z,5.26
2022-12-05T03:14:22.371Z,5.24
2022-12-05T03:16:55.051Z,5.22
2022-12-05T03:19:32.021Z,5.22
2022-12-05T03:22:07.239Z,5.22
2022-12-05T03:24:39.098Z,5.21
2022-12-05T03:27:17.207Z,5.22
2022-12-05T03:29:55.539Z,5.22
2022-12-05T03:32:28.194Z,5.17
2022-12-05T03:35:05.058Z,5.14
2022-12-05T03:37:41.180Z,5.13
2022-12-05T03:40:14.913Z,5.11
2022-12-05T03:42:48.433Z,5.11
2022-12-05T03:45:19.074Z,5.10
2022-12-05T03:47:51.147Z,5.08
2022-12-05T03:50:23.441Z,5.07
2022-12-05T03:53:19.097Z,5.03
2022-12-05T03:55:46.635Z,5.03
2022-12-05T03:58:19.949Z,5.02
2022-12-05T04:00:51.356Z,5.01
2022-12-05T04:03:24.170Z,5.00
2022-12-05T04:05:55.010Z,5.00
2022-12-05T04:08:26.946Z,5.00
2022-12-05T04:10:58.056Z,5.00
2022-12-05T04:13:30.091Z,4.99
2022-12-05T04:16:19.860Z,4.98
2022-12-05T04:18:55.733Z,4.97
2022-12-05T04:21:40.745Z,4.94
2022-12-05T04:24:32.173Z,4.94
2022-12-05T04:27:22.669Z,4.93
2022-12-05T04:29:58.090Z,4.93
2022-12-05T04:32:28.752Z,4.95
2022-12-05T04:35:02.693Z,4.96
2022-12-05T04:37:33.224Z,4.97
2022-12-05T04:40:06.034Z,4.96
2022-12-05T04:42:35.444Z,4.93
2022-12-05T04:45:06.132Z,4.93
2022-12-05T04:47:38.807Z,4.96
2022-12-05T04:50:11.357Z,4.96
2022-12-05T04:52:40.470Z,4.96
2022-12-05T04:55:11.370Z,4.96
2022-12-05T04:57:46.317Z,4.97
2022-12-05T05:00:15.002Z,4.99
2022-12-05T05:02:46.576Z,4.97
2022-12-05T05:05:19.106Z,4.98
2022-12-05T05:07:49.939Z,5.00
2022-12-05T05:10:21.193Z,4.99
2022-12-05T05:12:49.312Z,4.99
2022-12-05T05:15:17.530Z,4.97
2022-12-05T05:17:45.651Z,4.97
2022-12-05T05:20:27.099Z,4.99
2022-12-05T05:22:57.640Z,4.99
2022-12-05T05:25:26.313Z,4.97
2022-12-05T05:27:56.452Z,4.97
2022-12-05T05:30:26.204Z,4.99
2022-12-05T05:32:54.640Z,4.98
2022-12-05T05:35:22.875Z,4.97
2022-12-05T05:37:51.003Z,4.98
2022-12-05T05:40:20.774Z,4.97
2022-12-05T05:42:50.594Z,4.96
2022-12-05T05:45:18.931Z,4.98
2022-12-05T05:47:48.902Z,4.98
2022-12-05T05:50:21.359Z,4.99
2022-12-05T05:52:50.177Z,5.00
2022-12-05T05:55:20.016Z,5.01
2022-12-05T05:57:48.183Z,5.01
2022-12-05T06:00:17.120Z,5.00
2022-12-05T06:02:45.356Z,5.02
2022-12-05T06:05:13.601Z,5.02
2022-12-05T06:07:41.766Z,5.06
2022-12-05T06:10:10.624Z,5.05
2022-12-05T06:12:40.129Z,5.03
2022-12-05T06:15:09.540Z,5.06
2022-12-05T06:17:37.798Z,5.05
2022-12-05T06:20:07.110Z,5.06
2022-12-05T06:22:35.291Z,5.09
2022-12-05T06:25:03.471Z,5.09
2022-12-05T06:27:32.248Z,5.12
2022-12-05T06:30:01.898Z,5.12
2022-12-05T06:32:30.640Z,5.12
2022-12-05T06:35:00.920Z,5.14
2022-12-05T06:37:29.050Z,5.16
2022-12-05T06:39:57.545Z,5.16
2022-12-05T06:42:25.801Z,5.17
2022-12-05T06:44:53.942Z,5.19
2022-12-05T06:47:23.479Z,5.18
2022-12-05T06:49:51.610Z,5.20
2022-12-05T06:52:19.805Z,5.18
2022-12-05T06:54:47.965Z,5.20
2022-12-05T06:57:16.210Z,5.22
2022-12-05T06:59:44.353Z,5.22
2022-12-05T07:02:12.562Z,5.23
2022-12-05T07:04:42.096Z,5.25
2022-12-05T07:07:10.408Z,5.24
2022-12-05T07:09:48.456Z,5.24
2022-12-05T07:12:18.501Z,5.26
2022-12-05T07:14:49.052Z,5.28
2022-12-05T07:17:18.119Z,5.30
2022-12-05T07:19:48.657Z,5.31
2022-12-05T07:22:16.950Z,5.32
2022-12-05T07:24:45.652Z,5.33
2022-12-05T07:27:14.447Z,5.35
2022-12-05T07:29:42.669Z,5.29
2022-12-05T07:32:10.982Z,5.31
2022-12-05T07:34:39.957Z,5.32
2022-12-05T07:37:09.555Z,5.31
2022-12-05T07:39:37.721Z,5.31
2022-12-05T07:42:05.964Z,5.31
2022-12-05T07:44:34.873Z,5.31
2022-12-05T07:47:03.151Z,5.31
2022-12-05T07:49:31.347Z,5.32
2022-12-05T07:51:59.473Z,5.34
2022-12-05T07:54:29.000Z,5.35
2022-12-05T07:56:57.181Z,5.35
2022-12-05T07:59:25.324Z,5.34
2022-12-05T08:01:53.552Z,5.36
2022-12-05T08:04:21.709Z,5.35
2022-12-05T08:06:49.843Z,5.37
2022-12-05T08:09:18.009Z,5.37
2022-12-05T08:11:52.398Z,5.35
2022-12-05T08:14:21.643Z,5.37
2022-12-05T08:16:49.876Z,5.39
2022-12-05T08:19:18.034Z,5.42
2022-12-05T08:21:46.435Z,5.43
2022-12-05T08:24:17.563Z,5.45
2022-12-05T08:26:47.102Z,5.47
2022-12-05T08:29:16.708Z,5.46
2022-12-05T08:31:47.878Z,5.46
2022-12-05T08:34:16.519Z,5.47
2022-12-05T08:36:44.777Z,5.47
2022-12-05T08:39:16.049Z,5.49
2022-12-05T08:41:44.332Z,5.48
2022-12-05T08:44:16.411Z,5.49
2022-12-05T08:46:46.190Z,5.48
2022-12-05T08:49:14.847Z,5.49
2022-12-05T08:51:43.771Z,5.50
2022-12-05T08:54:12.287Z,5.52
2022-12-05T08:56:40.469Z,5.51
2022-12-05T08:59:08.843Z,5.52
2022-12-05T09:01:39.476Z,5.54
2022-12-05T09:04:08.727Z,5.55
2022-12-05T09:06:39.172Z,5.57
2022-12-05T09:09:11.372Z,5.59
2022-12-05T09:11:44.058Z,5.59
2022-12-05T09:14:12.313Z,5.58
2022-12-05T09:16:42.124Z,5.58
2022-12-05T09:19:14.139Z,5.59
2022-12-05T09:21:43.153Z,5.61
2022-12-05T09:24:12.853Z,5.61
2022-12-05T09:26:41.541Z,5.64
2022-12-05T09:29:15.820Z,5.65
2022-12-05T09:31:47.884Z,5.63
2022-12-05T09:34:18.347Z,5.61
2022-12-05T09:36:49.627Z,5.63
2022-12-05T09:39:17.806Z,5.66
2022-12-05T09:42:06.056Z,5.69
2022-12-05T09:44:43.130Z,5.73
2022-12-05T09:47:18.928Z,5.78
2022-12-05T09:49:50.721Z,5.80
2022-12-05T09:52:25.559Z,5.79
2022-12-05T09:54:54.332Z,5.78
2022-12-05T09:57:32.101Z,5.78
2022-12-05T10:00:03.613Z,5.77
2022-12-05T10:02:43.552Z,5.77
2022-12-05T10:05:15.827Z,5.78
2022-12-05T10:07:50.318Z,5.79
2022-12-05T10:10:31.318Z,5.79
2022-12-05T10:13:11.348Z,5.81
2022-12-05T10:15:45.408Z,5.80
2022-12-05T10:18:28.058Z,5.81
2022-12-05T10:20:59.786Z,5.79
2022-12-05T10:26:20.946Z,5.80
2022-12-05T10:28:52.494Z,5.80
2022-12-05T10:31:27.222Z,5.81
2022-12-05T10:34:02.433Z,5.81
2022-12-05T10:36:31.906Z,5.83
2022-12-05T10:39:00.756Z,5.85
2022-12-05T10:41:29.730Z,5.86
2022-12-05T10:44:00.047Z,5.87
2022-12-05T10:46:28.287Z,5.87
2022-12-05T10:48:57.838Z,5.84
2022-12-05T10:51:34.005Z,5.83
2022-12-05T10:54:14.728Z,5.81
2022-12-05T10:56:45.365Z,5.84
2022-12-05T10:59:15.390Z,5.86
2022-12-05T11:01:49.363Z,5.88
2022-12-05T11:04:31.611Z,5.92
2022-12-05T11:07:01.411Z,5.93
2022-12-05T11:09:31.557Z,5.96
2022-12-05T11:12:07.486Z,5.94
2022-12-05T11:14:36.425Z,5.90
2022-12-05T11:17:06.772Z,5.87
2022-12-05T11:19:37.619Z,5.84
2022-12-05T11:22:07.959Z,5.83
2022-12-05T11:24:37.964Z,5.80
2022-12-05T11:27:21.895Z,5.76
2022-12-05T11:29:57.732Z,5.72
2022-12-05T11:32:27.913Z,5.71
2022-12-05T11:35:02.440Z,5.68
2022-12-05T11:37:33.449Z,5.68
2022-12-05T11:40:02.971Z,5.67
2022-12-05T11:42:38.930Z,5.67
2022-12-05T11:45:27.503Z,5.66
2022-12-05T11:48:18.983Z,5.67
2022-12-05T11:50:56.135Z,5.67
2022-12-05T11:53:50.610Z,5.66
2022-12-05T11:56:30.652Z,5.63
2022-12-05T11:59:16.202Z,5.63
2022-12-05T12:01:52.841Z,5.61
2022-12-05T12:04:48.099Z,5.60
2022-12-05T12:07:40.650Z,5.58
2022-12-05T12:10:19.988Z,5.59
2022-12-05T12:12:57.539Z,5.55
2022-12-05T12:15:40.087Z,5.54
2022-12-05T12:18:14.070Z,5.56
2022-12-05T12:20:52.387Z,5.56
2022-12-05T12:23:35.272Z,5.56
2022-12-05T12:26:10.828Z,5.56
2022-12-05T12:28:45.669Z,5.55
2022-12-05T12:31:27.656Z,5.54
2022-12-05T12:34:02.120Z,5.54
2022-12-05T12:36:36.733Z,5.56
2022-12-05T12:39:19.389Z,5.54
2022-12-05T12:41:58.110Z,5.52
2022-12-05T12:44:57.610Z,5.49
2022-12-05T12:47:32.464Z,5.51
2022-12-05T12:50:09.144Z,5.49
2022-12-05T12:52:51.980Z,5.50
2022-12-05T12:55:23.889Z,5.48
2022-12-05T12:58:07.697Z,5.47
2022-12-05T13:00:45.594Z,5.47
2022-12-05T13:03:18.180Z,5.46
2022-12-05T13:05:49.590Z,5.46
2022-12-05T13:08:22.988Z,5.45
2022-12-05T13:10:53.492Z,5.45
2022-12-05T13:13:25.262Z,5.47
2022-12-05T13:15:55.895Z,5.45
2022-12-05T13:18:25.766Z,5.44
2022-12-05T13:20:55.781Z,5.44
2022-12-05T13:23:25.641Z,5.45
2022-12-05T13:25:57.851Z,5.45
2022-12-05T13:28:32.967Z,5.47
2022-12-05T13:31:03.920Z,5.48
2022-12-05T13:33:34.987Z,5.46
2022-12-05T13:36:26.893Z,5.44
2022-12-05T13:39:20.130Z,5.43
2022-12-05T13:42:09.446Z,5.40
2022-12-05T13:44:41.079Z,5.40
2022-12-05T13:47:22.495Z,5.39
2022-12-05T13:49:53.235Z,5.37
2022-12-05T13:52:24.853Z,5.39
2022-12-05T13:54:57.902Z,5.38
2022-12-05T13:57:53.440Z,5.39
2022-12-05T14:00:27.653Z,5.39
2022-12-05T14:03:03.359Z,5.39
2022-12-05T14:05:53.593Z,5.37
2022-12-05T14:08:52.798Z,5.35
2022-12-05T14:11:21.410Z,5.32
2022-12-05T14:13:51.374Z,5.30
2022-12-05T14:16:50.557Z,5.30
2022-12-05T14:19:55.411Z,5.30
2022-12-05T14:22:48.824Z,5.29
2022-12-05T14:25:58.096Z,5.29
2022-12-05T14:28:44.091Z,5.30
2022-12-05T14:31:34.268Z,5.33
2022-12-05T14:34:24.943Z,5.31
2022-12-05T14:36:58.977Z,5.30
2022-12-05T14:39:38.205Z,5.27
2022-12-05T14:42:19.963Z,5.24
2022-12-05T14:44:48.754Z,5.22
2022-12-05T14:47:22.974Z,5.21
2022-12-05T14:50:04.315Z,5.23
2022-12-05T14:52:34.462Z,5.23
2022-12-05T14:55:07.087Z,5.23
2022-12-05T14:57:47.275Z,5.22
2022-12-05T15:00:22.596Z,5.23
2022-12-05T15:02:55.449Z,5.26
2022-12-05T15:05:27.403Z,5.26
2022-12-05T15:07:56.230Z,5.25
2022-12-05T15:10:26.335Z,5.26
2022-12-05T15:12:58.419Z,5.28
2022-12-05T15:15:34.968Z,5.28
2022-12-05T15:18:10.662Z,5.29
2022-12-05T15:20:44.895Z,5.30
2022-12-05T15:23:40.281Z,5.31
2022-12-05T15:26:45.724Z,5.29
2022-12-05T15:29:08.863Z,5.26
2022-12-05T15:31:39.386Z,5.27
2022-12-05T15:34:18.616Z,5.27
2022-12-05T15:36:50.643Z,5.26
2022-12-05T15:39:23.789Z,5.29
2022-12-05T15:41:52.715Z,5.30
2022-12-05T15:44:26.690Z,5.28
2022-12-05T15:46:57.519Z,5.26
2022-12-05T15:49:28.632Z,5.28
2022-12-05T15:52:01.813Z,5.25
2022-12-05T15:54:32.789Z,5.25
2022-12-05T15:57:05.658Z,5.25
2022-12-05T15:59:37.683Z,5.27
2022-12-05T16:02:12.669Z,5.29
2022-12-05T16:04:46.302Z,5.30
2022-12-05T16:07:15.809Z,5.31
2022-12-05T16:09:45.679Z,5.32
2022-12-05T16:12:25.363Z,5.29
2022-12-05T16:15:00.466Z,5.26
2022-12-05T16:17:30.913Z,5.27
2022-12-05T16:20:13.654Z,5.26
2022-12-05T16:22:46.226Z,5.26
2022-12-05T16:25:16.683Z,5.25
2022-12-05T16:27:56.675Z,5.27
2022-12-05T16:30:31.361Z,5.25
2022-12-05T16:33:03.742Z,5.26
2022-12-05T16:35:40.867Z,5.26
2022-12-05T16:38:13.289Z,5.26
2022-12-05T16:40:43.281Z,5.25
2022-12-05T16:43:20.811Z,5.27
2022-12-05T16:45:49.592Z,5.29
2022-12-05T16:48:20.936Z,5.31
2022-12-05T16:50:51.445Z,5.32
2022-12-05T16:53:23.076Z,5.29
2022-12-05T16:55:51.405Z,5.27
2022-12-05T16:58:23.437Z,5.26
2022-12-05T17:00:52.102Z,5.27
2022-12-05T17:03:34.566Z,5.26
2022-12-05T17:06:04.881Z,5.26
2022-12-05T17:08:33.083Z,5.26
2022-12-05T17:11:21.863Z,5.24
2022-12-05T17:13:50.658Z,5.25
2022-12-05T17:16:20.728Z,5.24
2022-12-05T17:18:49.181Z,5.23
2022-12-05T17:21:20.495Z,5.25
2022-12-05T17:23:49.415Z,5.27
2022-12-05T17:26:19.767Z,5.28
2022-12-05T17:28:48.345Z,5.30
2022-12-05T17:31:17.992Z,5.30
2022-12-05T17:33:46.275Z,5.31
2022-12-05T17:36:14.890Z,5.33
2022-12-05T17:38:45.696Z,5.36
2022-12-05T17:41:16.466Z,5.34
2022-12-05T17:43:45.652Z,5.32
2022-12-05T17:46:16.786Z,5.34
2022-12-05T17:48:45.033Z,5.30
2022-12-05T17:51:14.628Z,5.31
2022-12-05T17:53:45.598Z,5.30
2022-12-05T17:56:14.310Z,5.31
2022-12-05T17:58:42.607Z,5.32
2022-12-05T18:01:15.160Z,5.32
2022-12-05T18:03:43.555Z,5.31
2022-12-05T18:06:12.135Z,5.31
2022-12-05T18:08:42.088Z,5.32
2022-12-05T18:11:12.119Z,5.32
2022-12-05T18:13:40.281Z,5.34
2022-12-05T18:16:08.880Z,5.35
2022-12-05T18:18:37.140Z,5.36
2022-12-05T18:21:07.373Z,5.36
2022-12-05T18:23:37.094Z,5.34
2022-12-05T18:26:05.844Z,5.31
2022-12-05T18:28:37.093Z,5.30
2022-12-05T18:31:10.309Z,5.30
2022-12-05T18:33:38.556Z,5.31
2022-12-05T18:36:08.805Z,5.30
2022-12-05T18:38:37.713Z,5.31
2022-12-05T18:41:07.091Z,5.30
2022-12-05T18:43:36.991Z,5.30
2022-12-05T18:46:05.555Z,5.31
2022-12-05T18:48:41.711Z,5.30
2022-12-05T18:51:14.718Z,5.30
2022-12-05T18:53:51.417Z,5.31
2022-12-05T18:56:22.831Z,5.31
2022-12-05T18:58:57.361Z,5.34
2022-12-05T19:01:26.633Z,5.35
2022-12-05T19:03:56.083Z,5.35
2022-12-05T19:06:26.901Z,5.36
2022-12-05T19:08:55.439Z,5.36
2022-12-05T19:11:25.968Z,5.37
2022-12-05T19:13:57.469Z,5.36
2022-12-05T19:16:26.012Z,5.36
2022-12-05T19:18:56.178Z,5.36
2022-12-05T19:21:24.723Z,5.38
2022-12-05T19:23:52.972Z,5.38
2022-12-05T19:26:21.363Z,5.37
2022-12-05T19:28:49.815Z,5.40
2022-12-05T19:31:22.026Z,5.42
2022-12-05T19:33:52.460Z,5.44
2022-12-05T19:36:22.824Z,5.44
2022-12-05T19:38:52.219Z,5.45
2022-12-05T19:41:21.659Z,5.46
2022-12-05T19:43:49.850Z,5.45
2022-12-05T19:46:21.361Z,5.46
2022-12-05T19:48:49.688Z,5.47
2022-12-05T19:51:17.992Z,5.51
2022-12-05T19:53:47.614Z,5.52
2022-12-05T19:56:17.057Z,5.53
2022-12-05T19:58:45.598Z,5.54
2022-12-05T20:01:15.655Z,5.54
2022-12-05T20:03:48.544Z,5.56
2022-12-05T20:06:17.066Z,5.56
2022-12-05T20:08:45.607Z,5.56
2022-12-05T20:11:16.099Z,5.58
2022-12-05T20:13:47.017Z,5.59
2022-12-05T20:16:18.451Z,5.57
2022-12-05T20:18:48.868Z,5.57
2022-12-05T20:21:18.836Z,5.55
2022-12-05T20:23:47.165Z,5.54
2022-12-05T20:26:16.671Z,5.53
2022-12-05T20:28:45.143Z,5.51
2022-12-05T20:31:15.535Z,5.49
2022-12-05T20:33:43.965Z,5.47
2022-12-05T20:36:15.159Z,5.42
2022-12-05T20:38:43.846Z,5.39
2022-12-05T20:41:15.364Z,5.34
2022-12-05T20:43:43.999Z,5.27
2022-12-05T20:46:13.651Z,5.25
2022-12-05T20:48:42.024Z,5.25
2022-12-05T20:51:12.638Z,5.24
2022-12-05T20:53:43.927Z,5.19
2022-12-05T20:56:13.431Z,5.16
2022-12-05T20:58:42.457Z,5.13
2022-12-05T21:01:11.729Z,5.09
2022-12-05T21:03:42.480Z,5.09
2022-12-05T21:06:12.223Z,5.06
2022-12-05T21:08:40.642Z,5.06
2022-12-05T21:11:10.629Z,5.06
2022-12-05T21:13:38.854Z,5.06
2022-12-05T21:16:09.314Z,5.07
2022-12-05T21:18:37.817Z,5.07
2022-12-05T21:21:07.446Z,5.09
2022-12-05T21:23:36.079Z,5.07
2022-12-05T21:26:05.580Z,5.04
2022-12-05T21:28:35.940Z,5.05
2022-12-05T21:31:09.186Z,5.05
2022-12-05T21:33:37.399Z,5.06
2022-12-05T21:36:06.468Z,5.09
2022-12-05T21:38:34.887Z,5.09
2022-12-05T21:41:04.106Z,5.09
2022-12-05T21:43:32.514Z,5.09
2022-12-05T21:46:02.203Z,5.09
2022-12-05T21:48:30.563Z,5.09
2022-12-05T21:50:58.762Z,5.12
2022-12-05T21:53:26.908Z,5.13
2022-12-05T21:56:01.475Z,5.11
2022-12-05T21:58:30.023Z,5.10
2022-12-05T22:00:58.333Z,5.08
2022-12-05T22:03:28.196Z,5.09
2022-12-05T22:06:02.890Z,5.12
2022-12-05T22:08:31.363Z,5.11
2022-12-05T22:11:05.586Z,5.11
2022-12-05T22:13:34.154Z,5.13
2022-12-05T22:16:02.821Z,5.12
2022-12-05T22:18:33.117Z,5.13
2022-12-05T22:21:02.631Z,5.15
2022-12-05T22:23:31.230Z,5.16
2022-12-05T22:26:00.464Z,5.19
2022-12-05T22:28:29.038Z,5.17
2022-12-05T22:30:58.318Z,5.12
2022-12-05T22:33:26.902Z,5.08
2022-12-05T22:35:58.461Z,5.08
2022-12-05T22:38:27.271Z,5.06
2022-12-05T22:40:56.282Z,5.06
2022-12-05T22:43:25.172Z,5.06
2022-12-05T22:45:53.582Z,5.08
2022-12-05T22:48:22.146Z,5.11
2022-12-05T22:50:51.141Z,5.12
2022-12-05T22:53:21.376Z,5.11
2022-12-05T22:55:49.618Z,5.09
2022-12-05T22:58:18.233Z,5.09
2022-12-05T23:00:47.267Z,5.10
2022-12-05T23:03:15.496Z,5.09
2022-12-05T23:05:45.293Z,5.10
2022-12-05T23:08:13.542Z,5.09
2022-12-05T23:10:43.186Z,5.09
2022-12-05T23:13:11.297Z,5.08
2022-12-05T23:15:39.605Z,5.08
2022-12-05T23:18:08.603Z,5.07
2022-12-05T23:20:36.791Z,5.03
2022-12-05T23:23:04.909Z,5.04
2022-12-05T23:25:33.165Z,5.05
2022-12-05T23:28:02.700Z,5.05
2022-12-05T23:30:30.977Z,5.05
2022-12-05T23:32:59.117Z,5.01
2022-12-05T23:35:27.241Z,4.99
2022-12-05T23:37:55.391Z,4.99
2022-12-05T23:40:23.566Z,4.99
2022-12-05T23:42:51.711Z,4.98
2022-12-05T23:45:21.262Z,4.98
2022-12-05T23:47:49.415Z,4.99
2022-12-05T23:50:17.584Z,4.96
2022-12-05T23:52:46.040Z,4.98
2022-12-05T23:55:14.639Z,4.96
2022-12-05T23:57:42.784Z,4.97
